sensor_id;sensor_type;location;lat;lon;timestamp;pressure;altitude;pressure_sealevel;temperature;humidity
25420;BME280;13354;48.174;11.566;2023-05-23T00:00:20;95393.72;;;19.26;66.74
25420;BME280;13354;48.174;11.566;2023-05-23T00:02:46;95387.19;;;19.17;66.88
25420;BME280;13354;48.174;11.566;2023-05-23T00:05:12;95388.22;;;19.11;67.08
25420;BME280;13354;48.174;11.566;2023-05-23T00:07:39;95390.00;;;19.05;67.49
25420;BME280;13354;48.174;11.566;2023-05-23T00:10:05;95387.75;;;19.19;66.07
25420;BME280;13354;48.174;11.566;2023-05-23T00:12:30;95385.44;;;19.06;67.07
25420;BME280;13354;48.174;11.566;2023-05-23T00:14:57;95396.69;;;19.03;67.24
25420;BME280;13354;48.174;11.566;2023-05-23T00:17:22;95392.34;;;18.97;67.03
25420;BME280;13354;48.174;11.566;2023-05-23T00:19:50;95387.28;;;19.00;66.74
25420;BME280;13354;48.174;11.566;2023-05-23T00:22:15;95392.84;;;18.94;67.59
25420;BME280;13354;48.174;11.566;2023-05-23T00:24:41;95399.19;;;18.88;66.96
25420;BME280;13354;48.174;11.566;2023-05-23T00:27:07;95401.69;;;18.94;66.57
25420;BME280;13354;48.174;11.566;2023-05-23T00:29:32;95394.22;;;18.96;66.48
25420;BME280;13354;48.174;11.566;2023-05-23T00:31:57;95389.34;;;18.93;66.25
25420;BME280;13354;48.174;11.566;2023-05-23T00:34:23;95392.53;;;18.90;66.74
25420;BME280;13354;48.174;11.566;2023-05-23T00:36:48;95396.06;;;18.96;66.20
25420;BME280;13354;48.174;11.566;2023-05-23T00:39:14;95393.16;;;18.97;65.93
25420;BME280;13354;48.174;11.566;2023-05-23T00:41:52;95388.31;;;18.99;65.75
25420;BME280;13354;48.174;11.566;2023-05-23T00:44:18;95386.44;;;19.00;65.54
25420;BME280;13354;48.174;11.566;2023-05-23T00:46:46;95384.38;;;19.07;65.37
25420;BME280;13354;48.174;11.566;2023-05-23T00:49:14;95389.44;;;19.03;65.41
25420;BME280;13354;48.174;11.566;2023-05-23T00:51:40;95391.88;;;19.05;65.22
25420;BME280;13354;48.174;11.566;2023-05-23T00:54:07;95392.66;;;19.00;66.04
25420;BME280;13354;48.174;11.566;2023-05-23T00:56:33;95396.59;;;18.93;66.37
25420;BME280;13354;48.174;11.566;2023-05-23T00:58:59;95392.75;;;18.89;66.25
25420;BME280;13354;48.174;11.566;2023-05-23T01:01:25;95397.63;;;18.92;66.29
25420;BME280;13354;48.174;11.566;2023-05-23T01:03:51;95397.13;;;18.95;66.07
25420;BME280;13354;48.174;11.566;2023-05-23T01:06:17;95395.06;;;19.02;65.74
25420;BME280;13354;48.174;11.566;2023-05-23T01:08:42;95400.44;;;18.80;66.43
25420;BME280;13354;48.174;11.566;2023-05-23T01:11:19;95395.44;;;18.89;66.13
25420;BME280;13354;48.174;11.566;2023-05-23T01:13:56;95399.06;;;18.99;65.76
25420;BME280;13354;48.174;11.566;2023-05-23T01:16:35;95398.38;;;18.87;66.01
25420;BME280;13354;48.174;11.566;2023-05-23T01:19:23;95403.72;;;18.82;66.11
25420;BME280;13354;48.174;11.566;2023-05-23T01:21:55;95399.59;;;18.96;65.40
25420;BME280;13354;48.174;11.566;2023-05-23T01:24:53;95412.13;;;18.91;65.44
25420;BME280;13354;48.174;11.566;2023-05-23T01:29:56;95412.75;;;18.76;66.52
25420;BME280;13354;48.174;11.566;2023-05-23T01:32:24;95410.31;;;18.74;66.31
25420;BME280;13354;48.174;11.566;2023-05-23T01:34:52;95413.50;;;18.71;66.77
25420;BME280;13354;48.174;11.566;2023-05-23T01:37:17;95408.31;;;18.87;65.57
25420;BME280;13354;48.174;11.566;2023-05-23T01:39:44;95403.22;;;18.68;66.52
25420;BME280;13354;48.174;11.566;2023-05-23T01:42:10;95409.75;;;18.72;66.48
25420;BME280;13354;48.174;11.566;2023-05-23T01:44:35;95413.09;;;18.85;65.86
25420;BME280;13354;48.174;11.566;2023-05-23T01:47:02;95412.28;;;18.84;65.78
25420;BME280;13354;48.174;11.566;2023-05-23T01:49:29;95414.84;;;18.74;66.28
25420;BME280;13354;48.174;11.566;2023-05-23T01:51:56;95419.06;;;18.70;66.45
25420;BME280;13354;48.174;11.566;2023-05-23T01:54:21;95426.56;;;18.68;66.40
25420;BME280;13354;48.174;11.566;2023-05-23T01:56:48;95424.69;;;18.68;66.21
25420;BME280;13354;48.174;11.566;2023-05-23T01:59:14;95430.81;;;18.64;66.71
25420;BME280;13354;48.174;11.566;2023-05-23T02:01:40;95427.09;;;18.70;66.27
25420;BME280;13354;48.174;11.566;2023-05-23T02:04:05;95431.50;;;18.76;66.22
25420;BME280;13354;48.174;11.566;2023-05-23T02:06:31;95426.31;;;18.69;66.70
25420;BME280;13354;48.174;11.566;2023-05-23T02:08:56;95437.16;;;18.57;67.00
25420;BME280;13354;48.174;11.566;2023-05-23T02:11:21;95432.41;;;18.65;66.72
25420;BME280;13354;48.174;11.566;2023-05-23T02:13:47;95436.06;;;18.58;67.05
25420;BME280;13354;48.174;11.566;2023-05-23T02:16:12;95435.53;;;18.56;67.32
25420;BME280;13354;48.174;11.566;2023-05-23T02:18:38;95436.03;;;18.53;67.58
25420;BME280;13354;48.174;11.566;2023-05-23T02:21:04;95431.72;;;18.52;67.63
25420;BME280;13354;48.174;11.566;2023-05-23T02:23:29;95436.81;;;18.54;67.68
25420;BME280;13354;48.174;11.566;2023-05-23T02:25:55;95434.41;;;18.52;67.66
25420;BME280;13354;48.174;11.566;2023-05-23T02:28:20;95434.00;;;18.44;68.36
25420;BME280;13354;48.174;11.566;2023-05-23T02:30:46;95437.00;;;18.47;68.51
25420;BME280;13354;48.174;11.566;2023-05-23T02:33:11;95433.78;;;18.28;68.86
25420;BME280;13354;48.174;11.566;2023-05-23T02:35:36;95435.91;;;18.26;69.16
25420;BME280;13354;48.174;11.566;2023-05-23T02:38:02;95434.53;;;18.24;69.55
25420;BME280;13354;48.174;11.566;2023-05-23T02:40:27;95447.44;;;18.10;69.47
25420;BME280;13354;48.174;11.566;2023-05-23T02:42:52;95443.97;;;18.26;69.48
25420;BME280;13354;48.174;11.566;2023-05-23T02:45:21;95444.28;;;18.13;69.93
25420;BME280;13354;48.174;11.566;2023-05-23T02:47:46;95445.34;;;18.12;70.43
25420;BME280;13354;48.174;11.566;2023-05-23T02:50:11;95452.31;;;18.13;70.19
25420;BME280;13354;48.174;11.566;2023-05-23T02:52:37;95445.75;;;18.04;70.39
25420;BME280;13354;48.174;11.566;2023-05-23T02:55:02;95450.16;;;17.93;71.37
25420;BME280;13354;48.174;11.566;2023-05-23T02:57:27;95446.25;;;17.84;72.02
25420;BME280;13354;48.174;11.566;2023-05-23T02:59:53;95450.31;;;17.86;72.06
25420;BME280;13354;48.174;11.566;2023-05-23T03:02:18;95447.78;;;17.80;72.20
25420;BME280;13354;48.174;11.566;2023-05-23T03:04:44;95450.06;;;18.05;71.21
25420;BME280;13354;48.174;11.566;2023-05-23T03:07:09;95444.84;;;17.81;72.65
25420;BME280;13354;48.174;11.566;2023-05-23T03:09:36;95444.78;;;17.76;73.12
25420;BME280;13354;48.174;11.566;2023-05-23T03:12:01;95451.19;;;17.92;72.34
25420;BME280;13354;48.174;11.566;2023-05-23T03:14:27;95447.84;;;17.85;72.96
25420;BME280;13354;48.174;11.566;2023-05-23T03:16:52;95451.25;;;17.80;73.36
25420;BME280;13354;48.174;11.566;2023-05-23T03:19:17;95449.88;;;17.78;73.42
25420;BME280;13354;48.174;11.566;2023-05-23T03:21:42;95461.41;;;17.78;73.33
25420;BME280;13354;48.174;11.566;2023-05-23T03:24:08;95454.88;;;17.74;74.15
25420;BME280;13354;48.174;11.566;2023-05-23T03:26:33;95464.91;;;17.67;73.86
25420;BME280;13354;48.174;11.566;2023-05-23T03:28:58;95459.09;;;17.70;73.96
25420;BME280;13354;48.174;11.566;2023-05-23T03:31:24;95465.25;;;17.71;73.66
25420;BME280;13354;48.174;11.566;2023-05-23T03:33:49;95464.59;;;17.63;74.34
25420;BME280;13354;48.174;11.566;2023-05-23T03:36:15;95467.44;;;17.57;75.19
25420;BME280;13354;48.174;11.566;2023-05-23T03:38:40;95463.97;;;17.73;73.83
25420;BME280;13354;48.174;11.566;2023-05-23T03:41:05;95464.13;;;17.67;74.19
25420;BME280;13354;48.174;11.566;2023-05-23T03:43:31;95465.25;;;17.54;74.80
25420;BME280;13354;48.174;11.566;2023-05-23T03:45:57;95461.63;;;17.60;74.64
25420;BME280;13354;48.174;11.566;2023-05-23T03:48:22;95472.34;;;17.48;75.15
25420;BME280;13354;48.174;11.566;2023-05-23T03:50:48;95465.00;;;17.55;74.61
25420;BME280;13354;48.174;11.566;2023-05-23T03:53:13;95472.53;;;17.58;74.55
25420;BME280;13354;48.174;11.566;2023-05-23T03:55:38;95463.97;;;17.56;74.42
25420;BME280;13354;48.174;11.566;2023-05-23T03:58:04;95469.59;;;17.43;75.92
25420;BME280;13354;48.174;11.566;2023-05-23T04:00:29;95467.53;;;17.33;76.41
25420;BME280;13354;48.174;11.566;2023-05-23T04:02:55;95473.22;;;17.37;76.15
25420;BME280;13354;48.174;11.566;2023-05-23T04:05:21;95469.53;;;17.26;76.84
25420;BME280;13354;48.174;11.566;2023-05-23T04:07:46;95467.94;;;17.25;77.18
25420;BME280;13354;48.174;11.566;2023-05-23T04:10:12;95469.38;;;17.16;77.61
25420;BME280;13354;48.174;11.566;2023-05-23T04:12:37;95476.22;;;17.12;77.73
25420;BME280;13354;48.174;11.566;2023-05-23T04:15:06;95487.03;;;17.17;77.65
25420;BME280;13354;48.174;11.566;2023-05-23T04:17:31;95481.34;;;17.13;78.23
25420;BME280;13354;48.174;11.566;2023-05-23T04:19:57;95482.16;;;17.14;77.83
25420;BME280;13354;48.174;11.566;2023-05-23T04:22:22;95479.88;;;17.06;78.95
25420;BME280;13354;48.174;11.566;2023-05-23T04:24:48;95497.41;;;17.13;78.98
25420;BME280;13354;48.174;11.566;2023-05-23T04:27:13;95498.78;;;17.16;78.66
25420;BME280;13354;48.174;11.566;2023-05-23T04:29:39;95502.44;;;17.27;77.98
25420;BME280;13354;48.174;11.566;2023-05-23T04:32:07;95506.78;;;17.28;78.07
25420;BME280;13354;48.174;11.566;2023-05-23T04:34:32;95506.22;;;17.14;78.99
25420;BME280;13354;48.174;11.566;2023-05-23T04:37:01;95507.75;;;17.10;79.54
25420;BME280;13354;48.174;11.566;2023-05-23T04:39:27;95506.22;;;17.14;79.67
25420;BME280;13354;48.174;11.566;2023-05-23T04:41:53;95506.09;;;17.21;79.22
25420;BME280;13354;48.174;11.566;2023-05-23T04:44:19;95506.22;;;17.14;79.13
25420;BME280;13354;48.174;11.566;2023-05-23T04:46:44;95504.50;;;17.08;80.08
25420;BME280;13354;48.174;11.566;2023-05-23T04:49:10;95500.63;;;17.15;79.55
25420;BME280;13354;48.174;11.566;2023-05-23T04:51:37;95509.66;;;17.38;78.77
25420;BME280;13354;48.174;11.566;2023-05-23T04:54:02;95501.97;;;17.30;79.13
25420;BME280;13354;48.174;11.566;2023-05-23T04:56:28;95513.50;;;17.30;79.31
25420;BME280;13354;48.174;11.566;2023-05-23T04:58:53;95510.13;;;17.35;78.81
25420;BME280;13354;48.174;11.566;2023-05-23T05:01:19;95511.88;;;17.29;79.39
25420;BME280;13354;48.174;11.566;2023-05-23T05:03:44;95511.59;;;17.43;78.85
25420;BME280;13354;48.174;11.566;2023-05-23T05:06:10;95516.31;;;17.52;78.27
25420;BME280;13354;48.174;11.566;2023-05-23T05:08:35;95511.81;;;17.53;78.59
25420;BME280;13354;48.174;11.566;2023-05-23T05:11:01;95513.97;;;17.56;78.73
25420;BME280;13354;48.174;11.566;2023-05-23T05:13:26;95515.38;;;17.58;78.53
25420;BME280;13354;48.174;11.566;2023-05-23T05:15:51;95523.41;;;17.58;78.64
25420;BME280;13354;48.174;11.566;2023-05-23T05:18:16;95514.91;;;17.61;78.78
25420;BME280;13354;48.174;11.566;2023-05-23T05:20:42;95513.38;;;17.66;78.07
25420;BME280;13354;48.174;11.566;2023-05-23T05:23:07;95517.78;;;17.72;78.44
25420;BME280;13354;48.174;11.566;2023-05-23T05:25:34;95511.41;;;17.61;78.76
25420;BME280;13354;48.174;11.566;2023-05-23T05:28:01;95507.16;;;17.77;78.05
25420;BME280;13354;48.174;11.566;2023-05-23T05:30:30;95504.91;;;17.85;77.76
25420;BME280;13354;48.174;11.566;2023-05-23T05:32:57;95510.09;;;17.75;78.76
25420;BME280;13354;48.174;11.566;2023-05-23T05:35:23;95506.94;;;17.95;77.29
25420;BME280;13354;48.174;11.566;2023-05-23T05:37:48;95509.38;;;17.97;77.22
25420;BME280;13354;48.174;11.566;2023-05-23T05:40:13;95510.53;;;18.01;77.73
25420;BME280;13354;48.174;11.566;2023-05-23T05:42:38;95518.97;;;18.09;77.06
25420;BME280;13354;48.174;11.566;2023-05-23T05:45:05;95514.56;;;18.03;77.69
25420;BME280;13354;48.174;11.566;2023-05-23T05:47:30;95524.81;;;18.06;78.04
25420;BME280;13354;48.174;11.566;2023-05-23T05:49:55;95527.41;;;18.18;77.38
25420;BME280;13354;48.174;11.566;2023-05-23T05:52:21;95512.78;;;18.26;77.05
25420;BME280;13354;48.174;11.566;2023-05-23T05:54:46;95519.22;;;18.25;76.59
25420;BME280;13354;48.174;11.566;2023-05-23T05:57:11;95520.94;;;18.31;76.36
25420;BME280;13354;48.174;11.566;2023-05-23T05:59:37;95528.56;;;18.39;76.22
25420;BME280;13354;48.174;11.566;2023-05-23T06:02:02;95524.09;;;18.45;76.12
25420;BME280;13354;48.174;11.566;2023-05-23T06:04:27;95527.16;;;18.53;75.15
25420;BME280;13354;48.174;11.566;2023-05-23T06:06:53;95532.44;;;18.48;74.87
25420;BME280;13354;48.174;11.566;2023-05-23T06:09:18;95532.16;;;18.67;74.79
25420;BME280;13354;48.174;11.566;2023-05-23T06:11:43;95529.94;;;18.75;74.47
25420;BME280;13354;48.174;11.566;2023-05-23T06:14:09;95531.13;;;18.85;74.33
25420;BME280;13354;48.174;11.566;2023-05-23T06:16:34;95530.78;;;18.81;74.82
25420;BME280;13354;48.174;11.566;2023-05-23T06:18:59;95531.00;;;18.74;74.17
25420;BME280;13354;48.174;11.566;2023-05-23T06:21:25;95536.03;;;18.71;74.49
25420;BME280;13354;48.174;11.566;2023-05-23T06:23:50;95540.22;;;18.67;75.10
25420;BME280;13354;48.174;11.566;2023-05-23T06:26:16;95537.25;;;18.63;74.87
25420;BME280;13354;48.174;11.566;2023-05-23T06:28:41;95539.34;;;18.61;75.58
25420;BME280;13354;48.174;11.566;2023-05-23T06:31:07;95540.91;;;18.57;75.71
25420;BME280;13354;48.174;11.566;2023-05-23T06:33:34;95532.84;;;18.57;75.94
25420;BME280;13354;48.174;11.566;2023-05-23T06:35:59;95542.28;;;18.59;76.03
25420;BME280;13354;48.174;11.566;2023-05-23T06:38:28;95534.50;;;18.75;75.73
25420;BME280;13354;48.174;11.566;2023-05-23T06:40:53;95543.06;;;18.94;75.54
25420;BME280;13354;48.174;11.566;2023-05-23T06:43:19;95543.53;;;19.08;74.75
25420;BME280;13354;48.174;11.566;2023-05-23T06:45:47;95549.75;;;19.13;73.97
25420;BME280;13354;48.174;11.566;2023-05-23T06:48:12;95541.53;;;19.20;73.62
25420;BME280;13354;48.174;11.566;2023-05-23T06:50:39;95550.06;;;19.39;73.07
25420;BME280;13354;48.174;11.566;2023-05-23T06:53:05;95549.63;;;19.47;72.77
25420;BME280;13354;48.174;11.566;2023-05-23T06:55:30;95544.56;;;19.50;72.45
25420;BME280;13354;48.174;11.566;2023-05-23T06:57:58;95547.75;;;19.47;72.47
25420;BME280;13354;48.174;11.566;2023-05-23T07:00:23;95555.13;;;19.57;72.06
25420;BME280;13354;48.174;11.566;2023-05-23T07:02:49;95550.41;;;19.91;71.50
25420;BME280;13354;48.174;11.566;2023-05-23T07:05:14;95539.66;;;20.50;69.70
25420;BME280;13354;48.174;11.566;2023-05-23T07:07:40;95542.78;;;20.74;68.49
25420;BME280;13354;48.174;11.566;2023-05-23T07:10:06;95544.69;;;20.79;67.38
25420;BME280;13354;48.174;11.566;2023-05-23T07:12:31;95546.88;;;20.87;67.30
25420;BME280;13354;48.174;11.566;2023-05-23T07:14:57;95551.53;;;20.97;67.34
25420;BME280;13354;48.174;11.566;2023-05-23T07:17:22;95558.91;;;21.17;66.21
25420;BME280;13354;48.174;11.566;2023-05-23T07:19:48;95559.22;;;20.78;66.42
25420;BME280;13354;48.174;11.566;2023-05-23T07:22:13;95558.06;;;20.69;67.36
25420;BME280;13354;48.174;11.566;2023-05-23T07:24:38;95566.59;;;20.56;68.62
25420;BME280;13354;48.174;11.566;2023-05-23T07:27:04;95570.31;;;20.49;68.75
25420;BME280;13354;48.174;11.566;2023-05-23T07:29:29;95569.84;;;20.31;69.47
25420;BME280;13354;48.174;11.566;2023-05-23T07:31:54;95577.59;;;20.54;68.28
25420;BME280;13354;48.174;11.566;2023-05-23T07:34:20;95561.09;;;20.45;68.48
25420;BME280;13354;48.174;11.566;2023-05-23T07:36:45;95567.84;;;20.48;68.20
25420;BME280;13354;48.174;11.566;2023-05-23T07:39:11;95571.28;;;20.43;68.00
25420;BME280;13354;48.174;11.566;2023-05-23T07:41:37;95567.84;;;20.48;68.44
25420;BME280;13354;48.174;11.566;2023-05-23T07:44:02;95567.19;;;20.63;68.11
25420;BME280;13354;48.174;11.566;2023-05-23T07:46:27;95564.59;;;20.46;68.04
25420;BME280;13354;48.174;11.566;2023-05-23T07:48:52;95571.75;;;20.35;68.82
25420;BME280;13354;48.174;11.566;2023-05-23T07:51:18;95566.22;;;20.15;69.58
25420;BME280;13354;48.174;11.566;2023-05-23T07:53:45;95564.84;;;20.12;69.74
25420;BME280;13354;48.174;11.566;2023-05-23T07:56:11;95568.00;;;20.04;70.68
25420;BME280;13354;48.174;11.566;2023-05-23T07:58:36;95566.13;;;20.05;70.23
25420;BME280;13354;48.174;11.566;2023-05-23T08:01:01;95578.13;;;19.97;70.42
25420;BME280;13354;48.174;11.566;2023-05-23T08:03:27;95576.03;;;19.77;71.30
25420;BME280;13354;48.174;11.566;2023-05-23T08:05:52;95578.88;;;19.65;72.29
25420;BME280;13354;48.174;11.566;2023-05-23T08:08:18;95576.78;;;19.72;71.12
25420;BME280;13354;48.174;11.566;2023-05-23T08:10:43;95575.94;;;19.67;71.73
25420;BME280;13354;48.174;11.566;2023-05-23T08:13:09;95579.66;;;19.66;72.15
25420;BME280;13354;48.174;11.566;2023-05-23T08:15:35;95584.53;;;19.69;71.83
25420;BME280;13354;48.174;11.566;2023-05-23T08:18:00;95586.38;;;19.63;71.91
25420;BME280;13354;48.174;11.566;2023-05-23T08:20:26;95583.44;;;19.65;71.94
25420;BME280;13354;48.174;11.566;2023-05-23T08:23:04;95584.00;;;19.67;71.94
25420;BME280;13354;48.174;11.566;2023-05-23T08:25:29;95588.31;;;19.51;72.44
25420;BME280;13354;48.174;11.566;2023-05-23T08:27:59;95588.72;;;19.60;72.28
25420;BME280;13354;48.174;11.566;2023-05-23T08:30:26;95594.91;;;19.60;72.18
25420;BME280;13354;48.174;11.566;2023-05-23T08:32:52;95592.06;;;19.67;72.12
25420;BME280;13354;48.174;11.566;2023-05-23T08:35:19;95592.16;;;19.77;71.63
25420;BME280;13354;48.174;11.566;2023-05-23T08:37:44;95600.44;;;19.70;72.00
25420;BME280;13354;48.174;11.566;2023-05-23T08:40:13;95596.72;;;19.76;71.27
25420;BME280;13354;48.174;11.566;2023-05-23T08:42:43;95592.78;;;19.62;72.15
25420;BME280;13354;48.174;11.566;2023-05-23T08:45:08;95600.41;;;19.48;72.35
25420;BME280;13354;48.174;11.566;2023-05-23T08:47:35;95599.59;;;19.70;71.42
25420;BME280;13354;48.174;11.566;2023-05-23T08:50:04;95600.44;;;19.70;71.76
25420;BME280;13354;48.174;11.566;2023-05-23T08:52:32;95600.34;;;19.65;72.00
25420;BME280;13354;48.174;11.566;2023-05-23T08:54:59;95605.28;;;19.73;71.39
25420;BME280;13354;48.174;11.566;2023-05-23T08:57:24;95608.56;;;19.81;71.54
25420;BME280;13354;48.174;11.566;2023-05-23T08:59:51;95611.16;;;19.92;70.60
25420;BME280;13354;48.174;11.566;2023-05-23T09:02:16;95607.94;;;19.95;70.16
25420;BME280;13354;48.174;11.566;2023-05-23T09:04:42;95602.88;;;19.99;69.37
25420;BME280;13354;48.174;11.566;2023-05-23T09:07:08;95601.25;;;19.98;70.27
25420;BME280;13354;48.174;11.566;2023-05-23T09:09:34;95613.31;;;19.95;70.63
25420;BME280;13354;48.174;11.566;2023-05-23T09:11:59;95614.75;;;20.03;70.43
25420;BME280;13354;48.174;11.566;2023-05-23T09:14:27;95607.84;;;20.12;70.51
25420;BME280;13354;48.174;11.566;2023-05-23T09:17:00;95611.66;;;19.89;70.59
25420;BME280;13354;48.174;11.566;2023-05-23T09:19:26;95610.25;;;19.87;70.85
25420;BME280;13354;48.174;11.566;2023-05-23T09:21:53;95614.69;;;19.98;70.57
25420;BME280;13354;48.174;11.566;2023-05-23T09:24:18;95609.06;;;19.99;70.71
25420;BME280;13354;48.174;11.566;2023-05-23T09:26:47;95605.31;;;20.00;70.76
25420;BME280;13354;48.174;11.566;2023-05-23T09:29:13;95613.84;;;20.19;69.29
25420;BME280;13354;48.174;11.566;2023-05-23T09:31:38;95612.91;;;20.09;68.93
25420;BME280;13354;48.174;11.566;2023-05-23T09:34:03;95611.09;;;20.14;69.42
25420;BME280;13354;48.174;11.566;2023-05-23T09:36:29;95625.66;;;20.18;68.78
25420;BME280;13354;48.174;11.566;2023-05-23T09:38:56;95614.50;;;20.05;69.71
25420;BME280;13354;48.174;11.566;2023-05-23T09:41:29;95621.28;;;20.12;69.16
25420;BME280;13354;48.174;11.566;2023-05-23T09:43:54;95617.72;;;20.07;68.86
25420;BME280;13354;48.174;11.566;2023-05-23T09:46:21;95619.06;;;20.04;68.84
25420;BME280;13354;48.174;11.566;2023-05-23T09:48:47;95621.31;;;19.90;69.37
25420;BME280;13354;48.174;11.566;2023-05-23T09:51:13;95620.97;;;19.82;69.56
25420;BME280;13354;48.174;11.566;2023-05-23T09:53:38;95632.03;;;19.85;70.24
25420;BME280;13354;48.174;11.566;2023-05-23T09:56:04;95623.16;;;19.85;69.89
25420;BME280;13354;48.174;11.566;2023-05-23T09:58:32;95627.38;;;19.81;70.21
25420;BME280;13354;48.174;11.566;2023-05-23T10:01:01;95619.72;;;19.89;70.28
25420;BME280;13354;48.174;11.566;2023-05-23T10:03:44;95615.69;;;19.70;70.86
25420;BME280;13354;48.174;11.566;2023-05-23T10:08:43;95619.22;;;19.70;71.43
25420;BME280;13354;48.174;11.566;2023-05-23T10:13:44;95613.84;;;19.70;72.54
25420;BME280;13354;48.174;11.566;2023-05-23T10:16:30;95609.28;;;19.71;72.17
25420;BME280;13354;48.174;11.566;2023-05-23T10:19:02;95618.31;;;19.87;72.13
25420;BME280;13354;48.174;11.566;2023-05-23T10:21:34;95609.41;;;19.81;71.57
25420;BME280;13354;48.174;11.566;2023-05-23T10:24:03;95612.19;;;19.91;71.23
25420;BME280;13354;48.174;11.566;2023-05-23T10:26:29;95609.94;;;20.05;71.02
25420;BME280;13354;48.174;11.566;2023-05-23T10:28:55;95605.25;;;20.49;69.91
25420;BME280;13354;48.174;11.566;2023-05-23T10:31:22;95598.59;;;20.94;68.32
25420;BME280;13354;48.174;11.566;2023-05-23T10:33:59;95610.31;;;21.15;67.53
25420;BME280;13354;48.174;11.566;2023-05-23T10:36:47;95597.16;;;21.24;66.64
25420;BME280;13354;48.174;11.566;2023-05-23T10:42:30;95604.06;;;21.10;66.08
25420;BME280;13354;48.174;11.566;2023-05-23T10:45:20;95601.78;;;20.86;65.54
25420;BME280;13354;48.174;11.566;2023-05-23T10:47:51;95600.19;;;20.90;65.39
25420;BME280;13354;48.174;11.566;2023-05-23T10:50:34;95595.03;;;21.26;64.24
25420;BME280;13354;48.174;11.566;2023-05-23T10:53:00;95597.09;;;21.51;62.74
25420;BME280;13354;48.174;11.566;2023-05-23T10:55:31;95590.78;;;22.03;62.58
25420;BME280;13354;48.174;11.566;2023-05-23T10:58:19;95586.28;;;22.29;60.91
25420;BME280;13354;48.174;11.566;2023-05-23T11:00:56;95577.91;;;23.02;57.90
25420;BME280;13354;48.174;11.566;2023-05-23T11:03:53;95581.66;;;23.17;55.92
25420;BME280;13354;48.174;11.566;2023-05-23T11:12:00;95579.50;;;23.13;55.11
25420;BME280;13354;48.174;11.566;2023-05-23T11:19:36;95571.75;;;23.77;53.93
25420;BME280;13354;48.174;11.566;2023-05-23T11:22:01;95570.41;;;24.19;52.25
25420;BME280;13354;48.174;11.566;2023-05-23T11:24:47;95566.19;;;24.02;51.79
25420;BME280;13354;48.174;11.566;2023-05-23T11:27:14;95562.44;;;23.98;52.27
25420;BME280;13354;48.174;11.566;2023-05-23T11:29:40;95563.53;;;23.97;52.61
25420;BME280;13354;48.174;11.566;2023-05-23T11:32:14;95561.75;;;23.77;52.84
25420;BME280;13354;48.174;11.566;2023-05-23T11:34:40;95560.97;;;23.61;53.01
25420;BME280;13354;48.174;11.566;2023-05-23T11:37:05;95557.81;;;23.44;53.36
25420;BME280;13354;48.174;11.566;2023-05-23T11:39:30;95553.13;;;23.65;54.49
25420;BME280;13354;48.174;11.566;2023-05-23T11:41:59;95558.69;;;23.89;54.17
25420;BME280;13354;48.174;11.566;2023-05-23T11:44:26;95565.16;;;23.98;53.09
25420;BME280;13354;48.174;11.566;2023-05-23T11:47:05;95560.13;;;24.21;53.08
25420;BME280;13354;48.174;11.566;2023-05-23T11:49:34;95557.28;;;23.97;53.52
25420;BME280;13354;48.174;11.566;2023-05-23T11:52:03;95559.59;;;23.79;53.33
25420;BME280;13354;48.174;11.566;2023-05-23T11:54:29;95553.78;;;23.96;53.47
25420;BME280;13354;48.174;11.566;2023-05-23T11:56:55;95550.69;;;24.18;51.96
25420;BME280;13354;48.174;11.566;2023-05-23T11:59:21;95542.69;;;24.42;51.27
25420;BME280;13354;48.174;11.566;2023-05-23T12:01:46;95544.47;;;24.57;51.90
25420;BME280;13354;48.174;11.566;2023-05-23T12:04:12;95544.47;;;24.57;51.36
25420;BME280;13354;48.174;11.566;2023-05-23T12:06:38;95547.31;;;24.37;51.93
25420;BME280;13354;48.174;11.566;2023-05-23T12:09:05;95563.44;;;24.13;51.70
25420;BME280;13354;48.174;11.566;2023-05-23T12:11:32;95558.63;;;24.04;51.25
25420;BME280;13354;48.174;11.566;2023-05-23T12:13:57;95551.97;;;23.86;51.61
25420;BME280;13354;48.174;11.566;2023-05-23T12:16:27;95544.16;;;23.80;51.13
25420;BME280;13354;48.174;11.566;2023-05-23T12:18:52;95544.63;;;23.97;51.10
25420;BME280;13354;48.174;11.566;2023-05-23T12:21:18;95549.38;;;24.16;50.29
25420;BME280;13354;48.174;11.566;2023-05-23T12:23:43;95540.66;;;24.24;50.57
25420;BME280;13354;48.174;11.566;2023-05-23T12:26:09;95546.66;;;24.16;50.92
25420;BME280;13354;48.174;11.566;2023-05-23T12:28:42;95558.94;;;23.93;52.19
25420;BME280;13354;48.174;11.566;2023-05-23T12:31:15;95553.72;;;23.57;53.47
25420;BME280;13354;48.174;11.566;2023-05-23T12:33:42;95562.69;;;23.42;54.05
25420;BME280;13354;48.174;11.566;2023-05-23T12:36:09;95563.56;;;23.27;53.60
25420;BME280;13354;48.174;11.566;2023-05-23T12:38:35;95563.84;;;23.21;53.38
25420;BME280;13354;48.174;11.566;2023-05-23T12:41:31;95566.84;;;23.04;53.79
25420;BME280;13354;48.174;11.566;2023-05-23T12:43:56;95559.28;;;23.01;53.27
25420;BME280;13354;48.174;11.566;2023-05-23T12:46:26;95557.09;;;23.13;53.38
25420;BME280;13354;48.174;11.566;2023-05-23T12:48:52;95553.50;;;23.43;53.31
25420;BME280;13354;48.174;11.566;2023-05-23T12:51:18;95551.47;;;23.79;52.61
25420;BME280;13354;48.174;11.566;2023-05-23T12:53:44;95553.63;;;23.82;52.77
25420;BME280;13354;48.174;11.566;2023-05-23T12:56:09;95556.28;;;23.88;53.21
25420;BME280;13354;48.174;11.566;2023-05-23T12:58:35;95565.78;;;23.80;52.89
25420;BME280;13354;48.174;11.566;2023-05-23T13:01:01;95562.97;;;24.00;53.72
25420;BME280;13354;48.174;11.566;2023-05-23T13:03:30;95567.44;;;24.20;52.95
25420;BME280;13354;48.174;11.566;2023-05-23T13:05:56;95559.75;;;24.43;52.63
25420;BME280;13354;48.174;11.566;2023-05-23T13:08:22;95565.81;;;24.58;51.27
25420;BME280;13354;48.174;11.566;2023-05-23T13:10:47;95565.19;;;24.72;51.75